createdAt,value
2018-07-01T00:00:13.595Z,70.26
2018-07-01T00:01:13.725Z,70.16
2018-07-01T00:02:13.501Z,70.26
2018-07-01T00:03:13.491Z,70.36
2018-07-01T00:04:13.242Z,71.41
2018-07-01T00:05:13.483Z,71.41
2018-07-01T00:06:13.493Z,71.5
2018-07-01T00:07:13.466Z,71.5
2018-07-01T00:08:13.458Z,71.59
2018-07-01T00:09:13.453Z,72.07
2018-07-01T00:10:13.446Z,72.55
2018-07-01T00:11:13.189Z,72.55
2018-07-01T00:12:13.432Z,72.93
2018-07-01T00:13:13.426Z,72.74
2018-07-01T00:14:13.418Z,72.64
2018-07-01T00:15:13.411Z,72.93
2018-07-01T00:16:13.466Z,72.93
2018-07-01T00:17:13.398Z,72.93
2018-07-01T00:18:13.389Z,73.6
2018-07-01T00:19:13.385Z,74.04
2018-07-01T00:20:13.384Z,73.85
2018-07-01T00:21:13.373Z,73.88
2018-07-01T00:22:13.365Z,74.32
2018-07-01T00:23:13.357Z,74.23
2018-07-01T00:24:13.348Z,74.08
2018-07-01T00:25:13.344Z,73.94
2018-07-01T00:26:13.334Z,74.13
2018-07-01T00:27:13.083Z,73.85
2018-07-01T00:28:13.324Z,74.61
2018-07-01T00:29:13.321Z,75.28
2018-07-01T00:30:13.313Z,75.47
2018-07-01T00:31:13.304Z,75.95
2018-07-01T00:32:13.293Z,76.71
2018-07-01T00:33:13.286Z,76.33
2018-07-01T00:34:13.280Z,76.33
2018-07-01T00:35:13.283Z,76.52
2018-07-01T00:36:13.013Z,76.42
2018-07-01T00:37:13.259Z,77
2018-07-01T00:38:13.257Z,77.28
2018-07-01T00:39:13.243Z,78.14
2018-07-01T00:40:13.291Z,78.14
2018-07-01T00:41:13.228Z,78.72
2018-07-01T00:42:13.228Z,79
2018-07-01T00:43:13.216Z,79.28
2018-07-01T00:44:12.956Z,78.62
2018-07-01T00:45:13.204Z,79
2018-07-01T00:46:13.195Z,79.57
2018-07-01T00:47:13.186Z,79.28
2018-07-01T00:48:12.935Z,79.57
2018-07-01T00:49:13.175Z,79.38
2018-07-01T00:50:13.171Z,79.96
2018-07-01T00:51:12.908Z,80.15
2018-07-01T00:52:12.902Z,80.33
2018-07-01T00:53:13.152Z,80.62
2018-07-01T00:54:12.884Z,80.72
2018-07-01T00:55:13.129Z,80.15
2018-07-01T00:56:13.122Z,80.05
2018-07-01T00:57:13.115Z,80.81
2018-07-01T00:58:13.109Z,80.58
2018-07-01T00:59:13.100Z,80.72
2018-07-01T01:00:13.093Z,81.38
2018-07-01T01:01:13.091Z,81.25
2018-07-01T01:06:13.048Z,82.01
2018-07-01T01:07:13.041Z,82.59
2018-07-01T01:08:12.781Z,82.4
2018-07-01T01:09:13.025Z,82.68
2018-07-01T01:10:12.765Z,82.78
2018-07-01T01:11:13.010Z,83.25
2018-07-01T01:12:13.006Z,84.11
2018-07-01T01:13:12.995Z,83.64
2018-07-01T01:14:12.743Z,84.11
2018-07-01T01:15:12.979Z,83.92
2018-07-01T01:16:12.973Z,84.11
2018-07-01T01:17:12.968Z,84.2
2018-07-01T01:18:12.954Z,84.2
2018-07-01T01:19:12.952Z,83.92
2018-07-01T01:20:12.948Z,84.49
2018-07-01T01:21:12.937Z,84.78
2018-07-01T01:22:12.925Z,84.49
2018-07-01T01:23:12.916Z,84.97
2018-07-01T01:24:12.910Z,85.16
2018-07-01T01:25:12.904Z,85.25
2018-07-01T01:26:12.895Z,85.16
2018-07-01T01:27:12.886Z,85.06
2018-07-01T01:28:12.880Z,84.88
2018-07-01T01:29:12.870Z,84.88
2018-07-01T01:30:12.864Z,85.45
2018-07-01T01:31:12.856Z,85.35
2018-07-01T01:32:12.921Z,85.16
2018-07-01T01:33:12.844Z,85.54
2018-07-01T01:34:12.832Z,86.21
2018-07-01T01:35:12.826Z,86.49
2018-07-01T01:36:12.823Z,86.49
2018-07-01T01:37:12.559Z,86.11
2018-07-01T01:38:12.804Z,86.11
2018-07-01T01:39:12.794Z,86.98
2018-07-01T01:40:12.536Z,86.4
2018-07-01T01:41:12.780Z,86.69
2018-07-01T01:42:12.771Z,86.49
2018-07-01T01:43:12.765Z,86.98
2018-07-01T01:44:12.757Z,87.07
2018-07-01T01:45:12.749Z,86.93
2018-07-01T01:46:12.755Z,87.35
2018-07-01T01:47:12.739Z,87.54
2018-07-01T01:48:12.726Z,87.07
2018-07-01T01:49:12.722Z,87.45
2018-07-01T01:50:12.713Z,87.74
2018-07-01T01:51:12.704Z,87.74
2018-07-01T01:52:12.697Z,87.83
2018-07-01T01:53:12.688Z,88.21
2018-07-01T01:54:12.682Z,87.83
2018-07-01T01:55:12.674Z,87.64
2018-07-01T01:56:12.665Z,87.98
2018-07-01T01:57:12.662Z,88.07
2018-07-01T01:58:12.651Z,87.88
2018-07-01T01:59:12.645Z,88.45
2018-07-01T02:00:12.646Z,87.88
2018-07-01T02:01:12.636Z,88.55
2018-07-01T02:02:12.625Z,88.36
2018-07-01T02:03:12.615Z,88.17
2018-07-01T02:04:12.604Z,88.26
2018-07-01T02:05:12.344Z,88.55
2018-07-01T02:06:12.594Z,88.55
2018-07-01T02:07:12.585Z,88.26
2018-07-01T02:08:12.321Z,88.55
2018-07-01T02:09:12.567Z,88.93
2018-07-01T02:10:12.559Z,88.93
2018-07-01T02:11:12.549Z,88.74
2018-07-01T02:12:12.545Z,89.12
2018-07-01T02:13:12.545Z,88.84
2018-07-01T02:14:12.528Z,89.22
2018-07-01T02:15:12.518Z,88.74
2018-07-01T02:16:12.514Z,89.5
2018-07-01T02:17:12.502Z,89.4
2018-07-01T02:18:12.495Z,88.93
2018-07-01T02:19:12.494Z,89.5
2018-07-01T02:20:12.478Z,89.6
2018-07-01T02:21:12.473Z,89.5
2018-07-01T02:22:12.464Z,89.22
2018-07-01T02:23:12.459Z,89.4
2018-07-01T02:24:12.448Z,89.4
2018-07-01T02:25:12.187Z,89.79
2018-07-01T02:26:12.440Z,89.69
2018-07-01T02:27:12.426Z,89.5
2018-07-01T02:28:12.417Z,89.5
2018-07-01T02:29:12.408Z,89.89
2018-07-01T02:30:12.420Z,89.4
2018-07-01T02:31:12.397Z,89.79
2018-07-01T02:32:12.138Z,89.79
2018-07-01T02:33:12.380Z,89.69
2018-07-01T02:34:12.368Z,89.89
2018-07-01T02:35:12.366Z,89.89
2018-07-01T02:36:12.357Z,89.98
2018-07-01T02:37:12.346Z,89.4
2018-07-01T02:38:12.339Z,89.98
2018-07-01T02:39:12.079Z,89.98
2018-07-01T02:40:12.323Z,89.89
2018-07-01T02:41:12.314Z,89.89
2018-07-01T02:42:12.318Z,90.17
2018-07-01T02:43:12.317Z,90.08
2018-07-01T02:44:12.298Z,90.08
2018-07-01T02:45:12.286Z,90.26
2018-07-01T02:46:12.022Z,90.26
2018-07-01T02:47:12.274Z,90.17
2018-07-01T02:48:12.258Z,90.36
2018-07-01T02:49:12.250Z,90.08
2018-07-01T02:50:12.249Z,90.17
2018-07-01T02:51:12.233Z,89.89
2018-07-01T02:52:12.229Z,90.26
2018-07-01T02:53:12.218Z,90.08
2018-07-01T02:54:12.209Z,89.89
2018-07-01T02:55:12.201Z,90.17
2018-07-01T02:56:12.202Z,90.36
2018-07-01T02:57:12.189Z,90.17
2018-07-01T02:58:12.178Z,89.98
2018-07-01T02:59:12.170Z,90.36
2018-07-01T03:00:12.163Z,90.45
2018-07-01T03:01:12.156Z,90.64
2018-07-01T03:02:12.145Z,90.55
2018-07-01T03:03:12.137Z,90.45
2018-07-01T03:04:12.138Z,90.45
2018-07-01T03:05:12.138Z,90.55
2018-07-01T03:06:11.861Z,90.55
2018-07-01T03:07:12.107Z,90.17
2018-07-01T03:08:12.105Z,90.36
2018-07-01T03:09:12.091Z,91.13
2018-07-01T03:10:11.831Z,91.22
2018-07-01T03:11:12.076Z,91.08
2018-07-01T03:12:12.067Z,90.7
2018-07-01T03:13:11.818Z,91.03
2018-07-01T03:14:12.049Z,90.89
2018-07-01T03:15:12.044Z,90.89
2018-07-01T03:16:12.036Z,90.7
2018-07-01T03:17:12.037Z,90.98
2018-07-01T03:18:12.017Z,90.98
2018-07-01T03:19:12.012Z,91.08
2018-07-01T03:20:12.006Z,90.98
2018-07-01T03:21:12.001Z,90.89
2018-07-01T03:22:11.985Z,90.98
2018-07-01T03:23:11.977Z,90.98
2018-07-01T03:24:11.967Z,91.08
2018-07-01T03:25:11.960Z,91.08
2018-07-01T03:26:11.952Z,91.6
2018-07-01T03:27:11.945Z,91.03
2018-07-01T03:28:11.685Z,91.31
2018-07-01T03:29:11.932Z,90.93
2018-07-01T03:30:11.939Z,90.26
2018-07-01T03:31:11.915Z,90.03
2018-07-01T03:32:11.909Z,89.26
2018-07-01T03:33:11.898Z,88.69
2018-07-01T03:34:11.644Z,88.64
2018-07-01T03:35:11.885Z,87.3
2018-07-01T03:36:11.877Z,87.49
2018-07-01T03:37:11.871Z,86.39
2018-07-01T03:38:11.871Z,85.72
2018-07-01T03:39:11.858Z,85.1
2018-07-01T03:40:11.853Z,84.33
2018-07-01T03:41:11.594Z,83.67
2018-07-01T03:42:11.588Z,82.94
2018-07-01T03:43:11.581Z,81.99
2018-07-01T03:44:11.851Z,81.16
2018-07-01T03:45:11.824Z,80.3
2018-07-01T03:46:11.817Z,80.11
2018-07-01T03:47:11.817Z,79.16
2018-07-01T03:48:11.808Z,78.43
2018-07-01T03:49:11.802Z,78.05
2018-07-01T03:50:11.601Z,77.76
2018-07-01T03:51:11.796Z,77.33
2018-07-01T03:52:11.793Z,75.79
2018-07-01T03:53:11.788Z,75.6
2018-07-01T03:54:11.782Z,75.41
2018-07-01T03:55:11.779Z,74.49
2018-07-01T03:56:11.775Z,73.91
2018-07-01T03:57:11.771Z,73.57
2018-07-01T03:58:11.767Z,71.94
2018-07-01T03:59:11.767Z,71.4
2018-07-01T04:00:11.773Z,70.15
2018-07-01T04:01:11.759Z,69.52
2018-07-01T04:02:11.756Z,67.6
2018-07-01T04:03:11.755Z,65.91
2018-07-01T04:04:11.756Z,65.91
2018-07-01T04:05:11.751Z,65.81
2018-07-01T04:06:11.747Z,65.91
2018-07-01T04:07:11.750Z,65.14
2018-07-01T04:08:11.491Z,65.05
2018-07-01T04:09:11.756Z,64.4
2018-07-01T04:10:11.741Z,64.12
2018-07-01T04:11:11.743Z,63.09
2018-07-01T04:12:11.737Z,61.84
2018-07-01T04:13:11.736Z,61.36
2018-07-01T04:14:11.737Z,61.01
2018-07-01T04:15:11.733Z,61.01
2018-07-01T04:16:11.735Z,60.34
2018-07-01T04:17:11.732Z,59.22
2018-07-01T04:18:11.734Z,58.09
2018-07-01T04:19:11.731Z,57.8
2018-07-01T04:20:11.733Z,56.16
2018-07-01T04:21:12.342Z,54.65
2018-07-01T04:22:11.735Z,54.27
2018-07-01T04:23:11.736Z,55.43
2018-07-01T04:24:11.731Z,55.13
2018-07-01T04:25:11.744Z,54.36
2018-07-01T04:26:11.733Z,53.88
2018-07-01T04:27:11.734Z,53.33
2018-07-01T04:28:11.736Z,53.5
2018-07-01T04:29:11.736Z,53.21
2018-07-01T04:30:11.486Z,53.21
2018-07-01T04:31:12.054Z,53.62
2018-07-01T04:32:11.742Z,53.62
2018-07-01T04:33:11.490Z,51.72
2018-07-01T04:34:11.493Z,50.95
2018-07-01T04:35:11.746Z,50.69
2018-07-01T04:36:11.497Z,50.21
2018-07-01T04:37:11.750Z,50.59
2018-07-01T04:38:11.752Z,50.47
2018-07-01T04:39:11.756Z,50.66
2018-07-01T04:40:11.760Z,51.34
2018-07-01T04:41:11.762Z,51.05
2018-07-01T04:42:11.512Z,50.85
2018-07-01T04:43:11.767Z,50.01
2018-07-01T04:44:11.771Z,50.21
2018-07-01T04:45:11.773Z,50.13
2018-07-01T04:46:11.525Z,48.79
2018-07-01T04:47:11.792Z,47.85
2018-07-01T04:48:11.782Z,47.67
2018-07-01T04:49:11.902Z,46.73
2018-07-01T04:50:11.802Z,46.56
2018-07-01T04:51:11.797Z,45.59
2018-07-01T04:52:11.800Z,43.71
2018-07-01T04:53:11.808Z,41.6
2018-07-01T04:54:11.810Z,41.02
2018-07-01T04:55:12.041Z,41.31
2018-07-01T04:56:11.823Z,41.48
2018-07-01T04:57:11.828Z,41.85
2018-07-01T04:58:11.830Z,42.91
2018-07-01T04:59:11.583Z,43.85
2018-07-01T05:00:11.590Z,43.18
2018-07-01T05:01:11.848Z,42.14
2018-07-01T05:02:12.115Z,42.62
2018-07-01T05:03:11.860Z,43.4
2018-07-01T05:04:11.873Z,41.87
2018-07-01T05:05:11.871Z,41.09
2018-07-01T05:06:11.625Z,41.02
2018-07-01T05:07:11.632Z,39.97
2018-07-01T05:08:11.892Z,39.97
2018-07-01T05:09:11.895Z,39.97
2018-07-01T05:10:11.649Z,39.39
2018-07-01T05:11:11.912Z,39.01
2018-07-01T05:12:11.918Z,38.62
2018-07-01T05:13:11.925Z,39.97
2018-07-01T05:14:11.929Z,39.49
2018-07-01T05:15:11.938Z,39.88
2018-07-01T05:16:11.945Z,38.73
2018-07-01T05:17:12.017Z,38.15
2018-07-01T05:18:11.959Z,38.54
2018-07-01T05:19:11.712Z,38.83
2018-07-01T05:20:11.980Z,38.07
2018-07-01T05:21:11.976Z,37.03
2018-07-01T05:22:11.734Z,37.26
2018-07-01T05:23:11.992Z,34.95
2018-07-01T05:24:11.748Z,34.56
2018-07-01T05:25:12.007Z,34.66
2018-07-01T05:26:12.016Z,35.05
2018-07-01T05:27:12.025Z,33.98
2018-07-01T05:28:12.035Z,33.78
2018-07-01T05:29:12.044Z,34.27
2018-07-01T05:30:12.048Z,34.38
2018-07-01T05:31:12.058Z,33.99
2018-07-01T05:32:12.067Z,33.14
2018-07-01T05:33:12.073Z,32.96
2018-07-01T05:34:12.082Z,33.07
2018-07-01T05:35:12.097Z,32.29
2018-07-01T05:36:12.101Z,31.92
2018-07-01T05:37:12.114Z,31.04
2018-07-01T05:38:12.119Z,30.38
2018-07-01T05:39:12.126Z,29.69
2018-07-01T05:40:12.136Z,29.91
2018-07-01T05:41:12.166Z,30.38
2018-07-01T05:42:12.155Z,30.96
2018-07-01T05:43:12.162Z,30.18
2018-07-01T05:44:12.171Z,30.87
2018-07-01T05:45:12.186Z,30.1
2018-07-01T05:46:11.940Z,29.33
2018-07-01T05:47:12.203Z,29.14
2018-07-01T05:48:11.961Z,29.33
2018-07-01T05:49:12.223Z,29.92
2018-07-01T05:50:12.233Z,30.21
2018-07-01T05:51:12.243Z,30.11
2018-07-01T05:52:12.256Z,28.94
2018-07-01T05:53:12.267Z,28.67
2018-07-01T05:54:12.022Z,28.75
2018-07-01T05:55:12.285Z,28.45
2018-07-01T05:56:12.296Z,29.04
2018-07-01T05:57:12.091Z,28.85
2018-07-01T05:58:12.315Z,29.11
2018-07-01T05:59:12.330Z,29.29
2018-07-01T06:00:12.085Z,29.96
2018-07-01T06:01:12.346Z,31.03
2018-07-01T06:02:12.357Z,31.01
2018-07-01T06:03:12.369Z,31.01
2018-07-01T06:04:12.403Z,31.98
2018-07-01T06:05:12.389Z,30.91
2018-07-01T06:06:12.406Z,31.13
2018-07-01T06:07:12.411Z,30.07
2018-07-01T06:08:12.420Z,29.88
2018-07-01T06:09:12.438Z,30.55
2018-07-01T06:10:12.446Z,29.3
2018-07-01T06:11:12.456Z,29.03
2018-07-01T06:12:12.465Z,28.44
2018-07-01T06:13:12.476Z,28.93
2018-07-01T06:14:12.634Z,29.22
2018-07-01T06:15:12.507Z,28.83
2018-07-01T06:16:12.508Z,29.22
2018-07-01T06:17:12.269Z,29.32
2018-07-01T06:18:12.533Z,28.83
2018-07-01T06:19:12.549Z,28.36
2018-07-01T06:20:12.554Z,28.85
2018-07-01T06:21:12.566Z,28.45
2018-07-01T06:22:12.584Z,28.55
2018-07-01T06:23:12.588Z,28.26
2018-07-01T06:24:12.607Z,28.55
2018-07-01T06:25:12.615Z,28.65
2018-07-01T06:26:12.624Z,28.85
2018-07-01T06:27:12.635Z,28.08
2018-07-01T06:28:12.648Z,27.98
2018-07-01T06:29:12.663Z,27.8
2018-07-01T06:30:12.670Z,28.09
2018-07-01T06:31:12.683Z,28
2018-07-01T06:32:12.445Z,28.78
2018-07-01T06:33:12.709Z,28.78
2018-07-01T06:34:12.720Z,27.9
2018-07-01T06:35:12.735Z,28.09
2018-07-01T06:36:12.747Z,27.7
2018-07-01T06:37:12.509Z,28.39
2018-07-01T06:38:12.523Z,28.58
2018-07-01T06:39:12.785Z,29.43
2018-07-01T06:40:12.794Z,30
2018-07-01T06:41:12.804Z,30.77
2018-07-01T06:42:12.817Z,31.61
2018-07-01T06:43:12.830Z,32.94
2018-07-01T06:44:12.837Z,33.9
2018-07-01T06:45:12.847Z,34.27
2018-07-01T06:46:12.858Z,34.66
2018-07-01T06:47:12.868Z,34.74
2018-07-01T06:48:12.877Z,36.08
2018-07-01T06:49:12.886Z,35.88
2018-07-01T06:50:12.645Z,35.96
2018-07-01T06:51:12.906Z,36.54
2018-07-01T06:52:12.914Z,36.82
2018-07-01T06:53:12.927Z,37.3
2018-07-01T06:54:12.935Z,37.67
2018-07-01T06:55:12.943Z,38.15
2018-07-01T06:56:12.698Z,38.53
2018-07-01T06:57:12.969Z,38.43
2018-07-01T06:58:12.962Z,38.62
2018-07-01T06:59:12.967Z,38.62
2018-07-01T07:00:12.977Z,38.73
2018-07-01T07:01:12.980Z,38.64
2018-07-01T07:02:12.991Z,37.67
2018-07-01T07:03:13.005Z,37.3
2018-07-01T07:04:12.749Z,37.3
2018-07-01T07:05:13.017Z,37.28
2018-07-01T07:06:13.022Z,37.57
2018-07-01T07:07:12.769Z,37.67
2018-07-01T07:08:13.027Z,37.96
2018-07-01T07:09:13.034Z,38.53
2018-07-01T07:10:13.040Z,39.09
2018-07-01T07:11:13.046Z,38.7
2018-07-01T07:12:13.055Z,38.81
2018-07-01T07:13:13.058Z,38.62
2018-07-01T07:14:13.063Z,37.38
2018-07-01T07:15:13.077Z,36.99
2018-07-01T07:16:12.886Z,37.4
2018-07-01T07:17:13.082Z,37.77
2018-07-01T07:18:12.836Z,37.77
2018-07-01T07:19:13.096Z,38.23
2018-07-01T07:20:13.101Z,38.7
2018-07-01T07:21:13.106Z,40.13
2018-07-01T07:22:13.113Z,40.59
2018-07-01T07:23:13.120Z,40.96
2018-07-01T07:24:13.126Z,41.71
2018-07-01T07:25:13.132Z,41.71
2018-07-01T07:26:13.152Z,41.4
2018-07-01T07:27:12.886Z,42.05
2018-07-01T07:28:13.141Z,41.96
2018-07-01T07:29:13.146Z,42.71
2018-07-01T07:30:13.151Z,43.29
2018-07-01T07:31:13.153Z,43.67
2018-07-01T07:32:12.905Z,44.13
2018-07-01T07:33:12.908Z,44.15
2018-07-01T07:34:13.164Z,42.13
2018-07-01T07:35:13.169Z,40.9
2018-07-01T07:36:13.172Z,40.99
2018-07-01T07:37:13.174Z,40.61
2018-07-01T07:38:12.930Z,38.6
2018-07-01T07:39:13.196Z,38.14
2018-07-01T07:40:13.189Z,37.19
2018-07-01T07:41:13.203Z,37.3
2018-07-01T07:42:12.950Z,36.94
2018-07-01T07:43:13.220Z,34.83
2018-07-01T07:44:13.212Z,33.78
2018-07-01T07:45:13.314Z,34.17
2018-07-01T07:46:13.227Z,34.07
2018-07-01T07:47:13.238Z,33.87
2018-07-01T07:48:13.240Z,34.27
2018-07-01T07:49:13.250Z,34.92
2018-07-01T07:50:13.254Z,35.89
2018-07-01T07:51:13.268Z,36.07
2018-07-01T07:52:13.370Z,37.34
2018-07-01T07:53:13.273Z,37.42
2018-07-01T07:54:13.285Z,38
2018-07-01T07:55:13.286Z,37.88
2018-07-01T07:56:13.297Z,38.06
2018-07-01T07:57:13.300Z,38.74
2018-07-01T07:58:13.308Z,39.78
2018-07-01T07:59:13.312Z,40.75
2018-07-01T08:00:13.318Z,41.4
2018-07-01T08:01:13.321Z,41.88
2018-07-01T08:02:13.335Z,43.04
2018-07-01T08:03:13.329Z,43.02
2018-07-01T08:04:13.332Z,43.79
2018-07-01T08:05:13.336Z,43.7
2018-07-01T08:06:13.337Z,43.33
2018-07-01T08:07:13.091Z,42.58
2018-07-01T08:08:13.347Z,41.63
2018-07-01T08:09:13.366Z,40.32
2018-07-01T08:10:13.357Z,38.89
2018-07-01T08:11:13.110Z,38.13
2018-07-01T08:12:13.372Z,37.57
2018-07-01T08:13:13.628Z,37.21
2018-07-01T08:14:13.387Z,36.74
2018-07-01T08:15:13.393Z,35.4
2018-07-01T08:16:13.405Z,34.91
2018-07-01T08:17:13.416Z,35.03
2018-07-01T08:18:13.422Z,34.56
2018-07-01T08:19:13.428Z,32.64
2018-07-01T08:20:13.445Z,32.17
2018-07-01T08:21:13.448Z,32.45
2018-07-01T08:22:13.473Z,32.75
2018-07-01T08:23:13.725Z,33.29
2018-07-01T08:24:13.490Z,33.49
2018-07-01T08:25:13.488Z,33.18
2018-07-01T08:26:13.503Z,34.91
2018-07-01T08:27:13.507Z,35.88
2018-07-01T08:28:13.515Z,35.96
2018-07-01T08:29:13.526Z,37.11
2018-07-01T08:30:13.533Z,37.77
2018-07-01T08:31:13.573Z,38.71
2018-07-01T08:32:13.567Z,39.47
2018-07-01T08:33:13.560Z,40.42
2018-07-01T08:34:13.308Z,40.11
2018-07-01T08:35:13.576Z,41.17
2018-07-01T08:36:13.576Z,40.96
2018-07-01T08:37:13.627Z,40.86
2018-07-01T08:38:13.617Z,41.35
2018-07-01T08:39:13.591Z,41.23
2018-07-01T08:40:13.734Z,39.69
2018-07-01T08:41:13.602Z,38.14
2018-07-01T08:42:13.605Z,38.21
2018-07-01T08:43:13.825Z,37.06
2018-07-01T08:44:13.618Z,36.77
2018-07-01T08:45:13.622Z,36.98
2018-07-01T08:46:13.710Z,36.5
2018-07-01T08:47:13.628Z,36.4
2018-07-01T08:48:13.632Z,36.01
2018-07-01T08:49:13.637Z,34.58
2018-07-01T08:50:13.648Z,34.79
2018-07-01T08:51:13.650Z,34.79
2018-07-01T08:52:13.416Z,34.91
2018-07-01T08:53:13.662Z,34.42
2018-07-01T08:54:13.921Z,32.87
2018-07-01T08:55:13.680Z,31.83
2018-07-01T08:56:13.700Z,32.02
2018-07-01T08:57:13.698Z,32.1
2018-07-01T08:58:13.699Z,31.71
2018-07-01T08:59:13.705Z,32.49
2018-07-01T09:00:13.713Z,33.15
2018-07-01T09:01:13.470Z,34.21
2018-07-01T09:02:13.748Z,34.5
2018-07-01T09:03:13.739Z,32.96
2018-07-01T09:04:13.754Z,32.75
2018-07-01T09:05:13.755Z,33.33
2018-07-01T09:06:13.508Z,33.04
2018-07-01T09:07:13.765Z,34.39
2018-07-01T09:08:13.772Z,34.39
2018-07-01T09:09:13.779Z,34.02
2018-07-01T09:10:13.785Z,34.6
2018-07-01T09:11:13.790Z,35.26
2018-07-01T09:12:13.796Z,36.22
2018-07-01T09:13:13.805Z,34.78
2018-07-01T09:14:13.553Z,34.87
2018-07-01T09:15:13.820Z,34.58
2018-07-01T09:16:13.821Z,34.58
2018-07-01T09:17:13.946Z,34.66
2018-07-01T09:18:13.568Z,34.87
2018-07-01T09:19:13.828Z,36.42
2018-07-01T09:20:13.843Z,36.98
2018-07-01T09:21:13.830Z,37.17
2018-07-01T09:22:13.580Z,36.01
2018-07-01T09:23:13.851Z,35.26
2018-07-01T09:24:13.594Z,35.26
2018-07-01T09:25:14.097Z,34.58
2018-07-01T09:26:13.846Z,34.87
2018-07-01T09:27:13.849Z,34.29
2018-07-01T09:28:13.598Z,34.29
2018-07-01T09:29:13.883Z,34.78
2018-07-01T09:30:13.864Z,34.86
2018-07-01T09:31:13.853Z,34.76
2018-07-01T09:32:13.855Z,35.24
2018-07-01T09:33:13.859Z,35.72
2018-07-01T09:34:13.904Z,37.08
2018-07-01T09:35:13.862Z,37.17
2018-07-01T09:36:13.862Z,37.35
2018-07-01T09:37:13.864Z,37.45
2018-07-01T09:38:13.869Z,37.73
2018-07-01T09:39:13.616Z,38.02
2018-07-01T09:40:13.868Z,38.68
2018-07-01T09:41:13.869Z,38.58
2018-07-01T09:42:13.871Z,39.36
2018-07-01T09:43:13.621Z,39.24
2018-07-01T09:44:13.873Z,39.82
2018-07-01T09:45:13.621Z,39.34
2018-07-01T09:46:13.623Z,38.66
2018-07-01T09:47:13.877Z,39.24
2018-07-01T09:48:13.877Z,40.09
2018-07-01T09:49:13.921Z,39.7
2018-07-01T09:50:13.905Z,39.99
2018-07-01T09:51:13.876Z,40.19
2018-07-01T09:52:13.888Z,39.68
2018-07-01T09:53:13.876Z,39.97
2018-07-01T09:54:13.897Z,39.59
2018-07-01T09:55:13.879Z,39.87
2018-07-01T09:56:13.901Z,40.36
2018-07-01T09:57:13.889Z,40.07
2018-07-01T09:58:13.625Z,40.55
2018-07-01T09:59:13.627Z,40.64
2018-07-01T10:00:13.649Z,40.55
2018-07-01T10:01:13.878Z,40.07
2018-07-01T10:02:13.622Z,40.36
2018-07-01T10:03:13.874Z,39.87
2018-07-01T10:04:13.873Z,40.07
2018-07-01T10:05:13.871Z,40.19
2018-07-01T10:06:13.872Z,40.28
2018-07-01T10:07:13.870Z,39.31
2018-07-01T10:08:13.869Z,38.35
2018-07-01T10:09:13.920Z,36.43
2018-07-01T10:10:13.615Z,36.52
2018-07-01T10:11:13.872Z,36.81
2018-07-01T10:12:13.872Z,37.1
2018-07-01T10:13:13.866Z,35.46
2018-07-01T10:14:13.864Z,34.59
2018-07-01T10:15:13.864Z,35.17
2018-07-01T10:16:13.874Z,34.52
2018-07-01T10:17:13.609Z,33.17
2018-07-01T10:18:13.614Z,34.13
2018-07-01T10:19:13.864Z,32.87
2018-07-01T10:20:13.860Z,33.17
2018-07-01T10:21:13.875Z,33.15
2018-07-01T10:22:13.871Z,32.95
2018-07-01T10:23:13.858Z,32.95
2018-07-01T10:24:13.855Z,33.15
2018-07-01T10:25:13.856Z,33.84
2018-07-01T10:26:13.855Z,33.74
2018-07-01T10:27:13.867Z,33.17
2018-07-01T10:28:13.855Z,33.17
2018-07-01T10:29:13.856Z,34.03
2018-07-01T10:30:14.313Z,34.13
2018-07-01T10:31:13.854Z,34.22
2018-07-01T10:32:13.854Z,34.03
2018-07-01T10:33:13.854Z,34.42
2018-07-01T10:34:13.868Z,34.32
2018-07-01T10:35:13.861Z,34.42
2018-07-01T10:36:13.854Z,34.53
2018-07-01T10:37:13.868Z,32.89
2018-07-01T10:38:13.605Z,32.99
2018-07-01T10:39:13.856Z,33.37
2018-07-01T10:40:14.017Z,32.62
2018-07-01T10:41:13.858Z,31.85
2018-07-01T10:42:13.851Z,31.94
2018-07-01T10:43:13.853Z,31.75
2018-07-01T10:44:13.849Z,31.85
2018-07-01T10:45:13.599Z,32.23
2018-07-01T10:46:13.599Z,31.65
2018-07-01T10:47:13.856Z,32.14
2018-07-01T10:48:13.850Z,31.56
2018-07-01T10:49:13.852Z,32.04
2018-07-01T10:50:13.850Z,32.81
2018-07-01T10:51:13.903Z,32.52
2018-07-01T10:52:13.871Z,32.62
2018-07-01T10:53:13.870Z,32.23
2018-07-01T10:54:13.602Z,32.43
2018-07-01T10:55:13.851Z,32.52
2018-07-01T10:56:13.849Z,32.52
2018-07-01T10:57:13.850Z,32.04
2018-07-01T10:58:13.859Z,32.06
2018-07-01T10:59:13.855Z,32.82
2018-07-01T11:00:13.860Z,32.07
2018-07-01T11:01:13.850Z,31.78
2018-07-01T11:02:13.850Z,31.3
2018-07-01T11:03:13.866Z,31.49
2018-07-01T11:04:13.854Z,31.3
2018-07-01T11:05:13.852Z,31.28
2018-07-01T11:06:14.152Z,31.4
2018-07-01T11:07:13.855Z,31.28
2018-07-01T11:08:13.855Z,31.67
2018-07-01T11:09:13.856Z,30.99
2018-07-01T11:10:13.613Z,31.09
2018-07-01T11:11:13.863Z,32.14
2018-07-01T11:12:13.895Z,32.52
2018-07-01T11:13:13.857Z,32.54
2018-07-01T11:14:13.857Z,32.44
2018-07-01T11:15:13.871Z,31.76
2018-07-01T11:16:13.861Z,31.3
2018-07-01T11:17:13.622Z,31.01
2018-07-01T11:18:13.869Z,30.14
2018-07-01T11:19:13.867Z,29.77
2018-07-01T11:20:13.667Z,28.91
2018-07-01T11:21:13.881Z,29.1
2018-07-01T11:22:13.613Z,29.59
2018-07-01T11:23:13.875Z,29.1
2018-07-01T11:24:13.616Z,28.81
2018-07-01T11:25:13.899Z,28.91
2018-07-01T11:26:13.870Z,29.1
2018-07-01T11:27:14.272Z,29.47
2018-07-01T11:28:13.871Z,29.77
2018-07-01T11:29:13.885Z,30.25
2018-07-01T11:30:14.155Z,30.72
2018-07-01T11:31:13.883Z,30.82
2018-07-01T11:32:13.877Z,31.49
2018-07-01T11:33:13.894Z,31.28
2018-07-01T11:34:13.885Z,31.86
2018-07-01T11:35:14.068Z,31.38
2018-07-01T11:36:13.885Z,31.48
2018-07-01T11:37:13.890Z,30.8
2018-07-01T11:38:14.018Z,30.7
2018-07-01T11:39:13.893Z,30.51
2018-07-01T11:40:13.889Z,31.18
2018-07-01T11:41:13.891Z,31.2
2018-07-01T11:42:13.883Z,31.01
2018-07-01T11:43:13.884Z,30.72
2018-07-01T11:44:13.908Z,30.44
2018-07-01T11:45:13.885Z,30.05
2018-07-01T11:46:13.886Z,29.28
2018-07-01T11:47:13.635Z,29.39
2018-07-01T11:48:13.889Z,29.3
2018-07-01T11:49:13.895Z,28.91
2018-07-01T11:50:13.637Z,29.01
2018-07-01T11:51:13.943Z,29.69
2018-07-01T11:52:14.019Z,29.39
2018-07-01T11:53:13.648Z,29.6
2018-07-01T11:54:13.910Z,29.32
2018-07-01T11:55:13.902Z,28.92
2018-07-01T11:56:13.893Z,28.64
2018-07-01T11:57:13.895Z,28.55
2018-07-01T11:58:14.014Z,27.58
2018-07-01T11:59:13.897Z,27.68
2018-07-01T12:00:13.903Z,27.6
2018-07-01T12:01:14.168Z,28.26
2018-07-01T12:02:13.995Z,28.75
2018-07-01T12:03:13.905Z,27.49
2018-07-01T12:04:13.911Z,27.76
2018-07-01T12:05:19.347Z,27.86
2018-07-01T12:06:13.909Z,28.25
2018-07-01T12:07:13.912Z,28.25
2018-07-01T12:08:13.912Z,28.54
2018-07-01T12:09:13.671Z,28.54
2018-07-01T12:10:13.920Z,28.54
2018-07-01T12:11:13.918Z,28.44
2018-07-01T12:12:13.923Z,28.54
2018-07-01T12:13:13.924Z,29.1
2018-07-01T12:14:13.939Z,28.91
2018-07-01T12:15:13.926Z,28.91
2018-07-01T12:16:13.925Z,28.64
2018-07-01T12:17:13.692Z,28.33
2018-07-01T12:18:13.927Z,28.43
2018-07-01T12:19:13.955Z,28.23
2018-07-01T12:20:13.933Z,28.44
2018-07-01T12:21:13.959Z,28.73
2018-07-01T12:22:13.694Z,28.92
2018-07-01T12:23:14.014Z,28.73
2018-07-01T12:24:13.941Z,28.64
2018-07-01T12:25:13.943Z,28.72
2018-07-01T12:26:13.945Z,29.59
2018-07-01T12:27:13.954Z,28.91
2018-07-01T12:28:13.692Z,28.34
2018-07-01T12:29:13.947Z,27.76
2018-07-01T12:30:13.949Z,27.86
2018-07-01T12:31:13.950Z,27.36
2018-07-01T12:32:13.957Z,28.04
2018-07-01T12:33:13.957Z,28.33
2018-07-01T12:34:13.968Z,28.43
2018-07-01T12:35:13.968Z,28.73
2018-07-01T12:36:13.704Z,28.25
2018-07-01T12:37:13.706Z,28.34
2018-07-01T12:38:13.959Z,28.34
2018-07-01T12:40:13.711Z,28.44
2018-07-01T12:41:13.969Z,28.44
2018-07-01T12:42:14.254Z,28.44
2018-07-01T12:43:13.974Z,28.34
2018-07-01T12:44:13.969Z,28.54
2018-07-01T12:45:13.971Z,29.01
2018-07-01T12:46:13.974Z,29.39
2018-07-01T12:47:13.973Z,29.2
2018-07-01T12:48:13.976Z,29.69
2018-07-01T12:49:13.979Z,29.59
2018-07-01T12:50:13.997Z,30.36
2018-07-01T12:51:13.728Z,30.83
2018-07-01T12:52:14.054Z,30.72
2018-07-01T12:53:13.995Z,31.1
2018-07-01T12:54:13.731Z,31.1
2018-07-01T12:55:13.999Z,31.49
2018-07-01T12:56:14.049Z,31.67
2018-07-01T12:57:13.987Z,32.24
2018-07-01T12:58:13.985Z,32.54
2018-07-01T12:59:13.736Z,32.82
2018-07-01T13:00:13.992Z,32.34